Time;durP1;ratioP1;P1;durP2;ratioP2;P2;SDS_P1;SDS_P2;PMS_P1;PMS_P2;Temp;Humidity;BMP_temperature;BMP_pressure;BME280_temperature;BME280_humidity;BME280_pressure;Samples;Min_cycle;Max_cycle;Signal;HPM_P1;HPM_P2
2022/12/23 00:01:27;;;;;;;28.95;14.02;;;;;;;10.95;90.14;100241.81;4852202;29;20064;-95
2022/12/23 00:03:56;;;;;;;24.95;13.85;;;;;;;10.97;90.15;100253.19;4860088;29;20029;-94
2022/12/23 00:06:22;;;;;;;28.05;15.00;;;;;;;10.93;90.35;100255.13;4849103;29;20444;-94
2022/12/23 00:08:47;;;;;;;27.33;14.77;;;;;;;10.91;89.86;100237.59;4850219;29;20029;-94
2022/12/23 00:11:19;;;;;;;24.80;13.98;;;;;;;11.01;90.10;100265.31;4852418;29;20071;-94
2022/12/23 00:16:29;;;;;;;26.83;14.60;;;;;;;11.02;89.74;100266.19;4846130;29;20056;-95
2022/12/23 00:18:54;;;;;;;26.90;15.13;;;;;;;10.96;90.32;100267.34;4847503;29;20033;-94
2022/12/23 00:21:20;;;;;;;25.50;14.80;;;;;;;10.96;90.05;100270.00;4852739;29;20040;-94
2022/12/23 00:23:47;;;;;;;26.15;16.00;;;;;;;10.98;90.21;100270.75;4853665;29;20037;-93
2022/12/23 00:26:24;;;;;;;25.50;14.95;;;;;;;10.93;89.97;100268.34;4846318;29;20034;-95
2022/12/23 00:28:50;;;;;;;31.52;17.38;;;;;;;10.97;90.31;100271.69;4857674;29;20037;-95
2022/12/23 00:31:17;;;;;;;26.20;16.00;;;;;;;10.95;90.04;100266.47;4843780;29;20026;-95
2022/12/23 00:33:44;;;;;;;28.63;17.35;;;;;;;11.01;89.82;100275.91;4854976;29;20042;-94
2022/12/23 00:36:17;;;;;;;32.75;16.50;;;;;;;11.04;89.95;100280.16;4857432;29;20040;-94
2022/12/23 00:44:10;;;;;;;30.17;17.70;;;;;;;11.07;89.38;100287.94;4855668;29;20071;-92
2022/12/23 00:46:36;;;;;;;32.95;16.90;;;;;;;11.02;89.73;100276.75;4852074;29;20467;-93
2022/12/23 00:51:45;;;;;;;33.17;15.85;;;;;;;11.03;89.56;100291.69;4856171;29;20049;-92
2022/12/23 00:54:10;;;;;;;33.05;17.48;;;;;;;11.07;89.69;100304.69;4859915;29;20026;-93
2022/12/23 00:56:36;;;;;;;31.13;17.50;;;;;;;11.02;89.78;100304.06;4854812;29;20025;-91
2022/12/23 00:59:01;;;;;;;28.75;17.45;;;;;;;10.99;89.66;100304.19;4857944;29;20052;-92
2022/12/23 01:06:56;;;;;;;31.88;17.77;;;;;;;11.02;89.59;100314.63;4849198;29;20041;-93
2022/12/23 01:09:21;;;;;;;31.13;17.58;;;;;;;11.01;89.59;100304.16;4843714;29;20062;-94
2022/12/23 01:11:47;;;;;;;29.23;15.43;;;;;;;11.01;89.01;100312.09;4858031;29;20435;-94
2022/12/23 01:14:12;;;;;;;28.50;16.73;;;;;;;11.01;89.66;100312.09;4853090;29;20487;-94
2022/12/23 01:16:38;;;;;;;32.97;16.45;;;;;;;11.03;89.55;100315.50;4851515;29;20042;-95
2022/12/23 01:19:05;;;;;;;30.60;16.17;;;;;;;11.00;89.53;100316.50;4855643;29;20033;-94
2022/12/23 01:21:30;;;;;;;31.10;15.38;;;;;;;10.98;89.44;100326.31;4849078;29;20029;-93
2022/12/23 01:23:56;;;;;;;33.80;16.58;;;;;;;10.97;89.44;100314.88;4854719;29;20599;-94
2022/12/23 01:26:21;;;;;;;29.58;15.98;;;;;;;10.99;89.39;100318.28;4856018;29;20025;-94
2022/12/23 01:28:46;;;;;;;33.00;16.13;;;;;;;11.01;89.38;100318.22;4857380;29;20155;-93
2022/12/23 01:31:11;;;;;;;32.15;16.02;;;;;;;10.99;89.37;100318.28;4852175;29;20034;-94
2022/12/23 01:33:37;;;;;;;30.23;14.55;;;;;;;11.04;89.46;100327.78;4847853;29;20032;-94
2022/12/23 01:36:05;;;;;;;31.98;16.02;;;;;;;10.99;89.10;100320.91;4853821;29;20029;-94
2022/12/23 01:38:31;;;;;;;32.80;15.50;;;;;;;11.03;89.28;100319.00;4851581;29;20446;-94
2022/12/23 01:40:57;;;;;;;30.83;15.00;;;;;;;11.03;89.51;100329.56;4856162;29;20030;-93
2022/12/23 01:43:42;;;;;;;32.17;16.80;;;;;;;11.02;89.46;100324.38;4845421;29;20037;-94
2022/12/23 01:46:07;;;;;;;32.80;18.38;;;;;;;10.90;89.64;100313.44;4846608;29;20510;-94
2022/12/23 01:48:33;;;;;;;32.58;17.23;;;;;;;10.90;89.96;100320.53;4856711;29;20125;-94
2022/12/23 01:51:06;;;;;;;29.95;15.90;;;;;;;10.93;89.67;100333.63;4846952;29;20029;-94
2022/12/23 01:53:58;;;;;;;31.27;18.65;;;;;;;11.01;89.91;100338.53;4847139;29;20514;-95
2022/12/23 01:56:28;;;;;;;33.03;16.52;;;;;;;10.94;89.99;100340.59;4848556;29;20157;-94
2022/12/23 02:04:43;;;;;;;29.77;16.10;;;;;;;10.92;90.13;100347.78;4855794;29;20443;-94
2022/12/23 02:09:53;;;;;;;33.72;17.17;;;;;;;10.89;90.26;100355.84;4841638;29;20129;-94
2022/12/23 02:12:25;;;;;;;32.38;16.98;;;;;;;10.95;90.47;100361.69;4853337;29;20116;-93
2022/12/23 02:18:37;;;;;;;33.55;16.60;;;;;;;11.01;89.96;100373.78;4852014;29;20501;-94
2022/12/23 02:21:18;;;;;;;30.92;17.20;;;;;;;10.96;90.03;100365.22;4866304;29;20562;-93
2022/12/23 02:23:54;;;;;;;25.98;15.25;;;;;;;10.94;90.14;100370.56;4852563;29;20030;-94
2022/12/23 02:26:37;;;;;;;34.38;15.93;;;;;;;10.98;90.01;100373.91;4853997;29;20554;-93
2022/12/23 02:29:27;;;;;;;32.63;15.88;;;;;;;11.01;89.75;100372.91;4854068;29;20467;-93
2022/12/23 02:32:14;;;;;;;28.65;15.65;;;;;;;10.95;89.99;100371.41;4843693;29;20034;-94
2022/12/23 02:34:54;;;;;;;30.75;15.80;;;;;;;10.98;90.30;100382.69;4853176;29;20037;-93
2022/12/23 02:37:28;;;;;;;29.17;16.17;;;;;;;11.01;90.33;100392.28;4850060;29;20474;-93
2022/12/23 02:40:00;;;;;;;31.45;16.80;;;;;;;10.90;89.92;100386.66;4846646;29;20402;-94
2022/12/23 02:42:51;;;;;;;30.23;15.55;;;;;;;10.99;90.33;100396.78;4862556;29;20052;-94
2022/12/23 02:45:38;;;;;;;27.63;16.40;;;;;;;10.91;90.04;100396.28;4850361;29;20045;-92
2022/12/23 02:48:11;;;;;;;31.10;14.63;;;;;;;10.91;90.38;100405.09;4858972;29;20478;-94
2022/12/23 02:50:37;;;;;;;;;;;;;;;11.06;89.46;100427.31;4846390;29;20053;-94
2022/12/23 02:53:47;;;;;;;30.23;15.68;;;;;;;10.99;90.13;100424.09;4867891;29;19923;-95
2022/12/23 02:56:16;;;;;;;27.50;15.60;;;;;;;10.97;89.79;100430.41;4855981;29;20044;-94
2022/12/23 02:59:00;;;;;;;24.88;15.25;;;;;;;10.95;90.28;100434.88;4851958;29;20513;-93
2022/12/23 03:01:28;;;;;;;32.90;15.68;;;;;;;10.97;89.91;100435.69;4851123;29;20505;-92
2022/12/23 03:03:53;;;;;;;26.08;14.68;;;;;;;10.89;90.07;100424.59;4847676;29;20053;-93
2022/12/23 03:06:24;;;;;;;26.52;14.70;;;;;;;10.89;90.36;100421.97;4846066;29;20486;-93
2022/12/23 03:08:53;;;;;;;23.40;13.20;;;;;;;10.95;90.36;100429.59;4858018;29;20033;-93
2022/12/23 03:11:18;;;;;;;21.92;12.25;;;;;;;10.95;90.26;100432.25;4855599;29;20030;-93
2022/12/23 03:14:08;;;;;;;22.92;13.00;;;;;;;10.98;90.15;100435.59;4857334;29;20030;-94
2022/12/23 03:16:59;;;;;;;23.60;13.48;;;;;;;10.96;90.26;100441.91;4848797;29;20077;-95
2022/12/23 03:20:24;;;;;;;24.73;13.82;;;;;;;11.05;89.83;100432.66;4844336;29;20041;-94
2022/12/23 03:23:00;;;;;;;27.63;13.38;;;;;;;11.00;89.97;100427.59;4842113;29;20034;-92
2022/12/23 03:25:32;;;;;;;28.65;13.40;;;;;;;10.92;89.77;100413.91;4841224;29;20042;-95
2022/12/23 03:28:12;;;;;;;24.95;13.07;;;;;;;10.98;89.68;100419.72;4839301;29;20135;-93
2022/12/23 03:30:42;;;;;;;23.15;12.48;;;;;;;10.94;89.71;100422.59;4855084;29;20045;-93
2022/12/23 03:33:14;;;;;;;22.83;12.10;;;;;;;10.93;89.68;100418.25;4851649;29;20037;-94
2022/12/23 03:35:47;;;;;;;24.88;13.93;;;;;;;10.89;90.29;100414.88;4859948;29;20116;-94
2022/12/23 03:38:16;;;;;;;27.85;13.93;;;;;;;10.92;89.62;100420.03;4848764;29;20057;-93
2022/12/23 03:40:46;;;;;;;24.42;13.73;;;;;;;10.92;89.75;100420.03;4852636;29;20030;-93
2022/12/23 03:43:18;;;;;;;26.88;14.93;;;;;;;10.92;89.78;100411.25;4842995;29;20094;-93
2022/12/23 03:45:50;;;;;;;29.80;14.27;;;;;;;10.94;89.81;100428.75;4849584;29;20033;-93
2022/12/23 03:48:41;;;;;;;29.42;15.13;;;;;;;11.03;89.92;100437.16;4853360;29;20037;-93
2022/12/23 03:51:18;;;;;;;28.60;14.32;;;;;;;10.92;89.78;100419.19;4839912;29;20061;-93
2022/12/23 03:53:50;;;;;;;28.65;14.30;;;;;;;10.89;90.05;100419.31;4856646;29;20045;-93
2022/12/23 03:56:20;;;;;;;27.80;14.75;;;;;;;10.83;90.21;100409.03;4854765;29;20036;-93
2022/12/23 03:58:58;;;;;;;25.60;13.85;;;;;;;10.84;90.36;100421.34;4858890;29;20113;-93
2022/12/23 04:01:30;;;;;;;25.45;14.05;;;;;;;10.87;90.15;100426.47;4854356;29;20026;-94
2022/12/23 04:03:55;;;;;;;25.05;13.70;;;;;;;10.91;90.11;100433.31;4859459;29;20037;-93
2022/12/23 04:06:23;;;;;;;26.63;13.93;;;;;;;10.82;90.12;100426.72;4860949;29;20032;-94
2022/12/23 04:08:49;;;;;;;30.90;15.45;;;;;;;10.79;89.98;100426.84;4854720;29;20309;-93
2022/12/23 04:11:14;;;;;;;31.55;15.57;;;;;;;10.83;90.01;100439.00;4850608;29;20029;-93
2022/12/23 04:13:39;;;;;;;32.50;14.68;;;;;;;10.81;89.86;100437.34;4855935;29;20505;-93
2022/12/23 04:16:05;;;;;;;29.52;14.88;;;;;;;10.80;89.74;100438.28;4855370;29;20498;-94
2022/12/23 04:18:31;;;;;;;28.33;14.68;;;;;;;10.81;89.97;100439.97;4849033;29;20044;-94
2022/12/23 04:20:57;;;;;;;28.73;14.50;;;;;;;10.83;90.08;100446.94;4848581;29;20478;-94
2022/12/23 04:23:22;;;;;;;31.27;16.05;;;;;;;10.79;90.27;100447.13;4854365;29;20435;-95
2022/12/23 04:25:47;;;;;;;32.55;15.95;;;;;;;10.79;89.74;100448.00;4859042;29;20083;-93
2022/12/23 04:28:13;;;;;;;26.85;15.00;;;;;;;10.86;89.80;100462.63;4850556;29;20094;-94
2022/12/23 04:30:38;;;;;;;34.30;15.02;;;;;;;10.83;89.84;100460.16;4848097;29;20033;-93
2022/12/23 04:33:03;;;;;;;26.95;13.85;;;;;;;10.86;89.30;100467.06;4854181;29;20048;-94
2022/12/23 04:35:29;;;;;;;27.98;14.65;;;;;;;10.84;89.63;100474.22;4850496;29;20033;-95
2022/12/23 04:37:54;;;;;;;33.92;17.15;;;;;;;10.85;89.35;100479.44;4844994;29;20069;-94
2022/12/23 04:40:20;;;;;;;26.83;14.52;;;;;;;10.75;89.49;100464.06;4857137;29;20120;-95
2022/12/23 04:42:45;;;;;;;28.65;15.48;;;;;;;10.80;89.75;100470.00;4852294;29;20022;-95
2022/12/23 04:45:10;;;;;;;32.80;16.05;;;;;;;10.78;89.59;100464.78;4864921;29;20390;-94
2022/12/23 04:47:35;;;;;;;31.98;15.45;;;;;;;10.82;89.65;100462.84;4852209;29;20033;-93
2022/12/23 04:50:01;;;;;;;30.13;15.60;;;;;;;10.85;89.74;100468.84;4857628;29;20063;-94
2022/12/23 04:52:27;;;;;;;31.10;15.77;;;;;;;10.77;89.83;100451.63;4850783;29;20029;-93
2022/12/23 04:54:52;;;;;;;30.38;15.07;;;;;;;10.80;89.38;100451.50;4846077;29;20029;-94
2022/12/23 04:57:17;;;;;;;30.17;16.13;;;;;;;10.81;89.38;100453.19;4854607;29;20407;-93
2022/12/23 04:59:43;;;;;;;31.75;15.27;;;;;;;10.76;89.50;100445.47;4855293;29;20040;-94
2022/12/23 05:02:08;;;;;;;34.40;16.35;;;;;;;10.80;89.14;100440.91;4848067;29;20031;-95
2022/12/23 05:04:34;;;;;;;34.65;16.90;;;;;;;10.78;89.82;100448.06;4845671;29;20044;-95
2022/12/23 05:06:59;;;;;;;32.90;16.35;;;;;;;10.76;89.56;100444.63;4846054;29;20034;-94
2022/12/23 05:09:24;;;;;;;34.90;15.93;;;;;;;10.77;89.34;100439.28;4854847;29;20090;-94
2022/12/23 05:11:49;;;;;;;35.58;17.50;;;;;;;10.76;89.38;100439.34;4844426;29;20029;-94
2022/12/23 05:14:15;;;;;;;31.75;16.65;;;;;;;10.70;89.54;100430.78;4858949;29;20101;-94
2022/12/23 05:16:40;;;;;;;33.53;16.85;;;;;;;10.70;89.62;100436.06;4844186;29;20054;-94
2022/12/23 05:19:05;;;;;;;31.50;16.85;;;;;;;10.73;89.31;100459.72;4857666;29;20034;-94
2022/12/23 05:21:30;;;;;;;28.83;15.35;;;;;;;10.71;89.60;100456.28;4845079;29;20432;-94
2022/12/23 05:23:56;;;;;;;39.80;17.35;;;;;;;10.73;89.73;100472.94;4846683;29;20447;-93
2022/12/23 05:26:22;;;;;;;27.77;14.68;;;;;;;10.71;89.51;100474.78;4850834;29;20053;-94
2022/12/23 05:28:47;;;;;;;26.08;13.90;;;;;;;10.72;89.63;100486.22;4850308;29;20052;-95
2022/12/23 05:31:13;;;;;;;25.83;13.52;;;;;;;10.67;89.51;100486.44;4848478;29;20034;-94
2022/12/23 05:33:39;;;;;;;29.00;13.65;;;;;;;10.68;89.64;100492.59;4847890;29;20041;-94
2022/12/23 05:36:05;;;;;;;24.77;13.40;;;;;;;10.67;89.89;100494.34;4855225;29;20025;-93
2022/12/23 05:38:30;;;;;;;25.65;13.55;;;;;;;10.67;89.85;100497.00;4852075;29;20471;-93
2022/12/23 05:40:56;;;;;;;28.00;13.65;;;;;;;10.67;89.71;100493.50;4852110;29;20089;-94
2022/12/23 05:43:22;;;;;;;28.67;12.90;;;;;;;10.63;89.45;100495.47;4857305;29;20034;-94
2022/12/23 05:45:48;;;;;;;29.25;14.07;;;;;;;10.61;89.87;100505.22;4851598;29;20092;-93
2022/12/23 05:48:13;;;;;;;28.90;14.02;;;;;;;10.70;89.96;100514.53;4848977;29;20458;-93
2022/12/23 05:50:39;;;;;;;27.27;13.48;;;;;;;10.67;89.78;100512.88;4847103;29;20032;-93
2022/12/23 05:53:05;;;;;;;25.92;13.52;;;;;;;10.71;89.79;100509.16;4849598;29;20120;-93
2022/12/23 05:55:31;;;;;;;32.50;14.35;;;;;;;10.71;89.47;100509.16;4849819;29;20026;-94
2022/12/23 05:57:56;;;;;;;25.73;14.50;;;;;;;10.69;89.44;100496.94;4845988;29;20531;-93
2022/12/23 06:00:21;;;;;;;32.70;14.50;;;;;;;10.70;89.55;100486.28;4842880;29;20038;-94
2022/12/23 06:02:47;;;;;;;30.80;14.02;;;;;;;10.67;89.43;100483.78;4845299;29;20379;-94
2022/12/23 06:05:12;;;;;;;28.00;14.48;;;;;;;10.76;89.27;100484.28;4863203;29;20037;-94
2022/12/23 06:07:39;;;;;;;29.38;14.20;;;;;;;10.75;89.41;100479.94;4850786;29;20060;-93
2022/12/23 06:10:06;;;;;;;31.42;14.70;;;;;;;10.71;89.77;100472.13;4844681;29;20070;-94
2022/12/23 06:12:31;;;;;;;28.20;13.75;;;;;;;10.72;89.55;100468.59;4851164;29;20030;-93
2022/12/23 06:14:56;;;;;;;29.63;14.43;;;;;;;10.68;89.45;100458.22;4855071;29;20502;-94
2022/12/23 06:17:22;;;;;;;30.50;15.10;;;;;;;10.77;89.59;100470.13;4855669;29;20050;-94
2022/12/23 06:19:48;;;;;;;33.38;14.63;;;;;;;10.71;89.48;100464.22;4853300;29;20553;-94
2022/12/23 06:22:14;;;;;;;32.00;15.38;;;;;;;10.73;89.21;100451.78;4852613;29;20036;-93
2022/12/23 06:24:39;;;;;;;34.63;16.63;;;;;;;10.76;89.49;100449.91;4853612;29;20558;-94
2022/12/23 06:27:04;;;;;;;33.30;15.88;;;;;;;10.82;89.11;100460.19;4858250;29;20116;-94
2022/12/23 06:29:30;;;;;;;34.70;15.93;;;;;;;10.77;89.50;100456.91;4854232;29;20131;-93
2022/12/23 06:31:55;;;;;;;34.42;16.73;;;;;;;10.67;89.42;100449.41;4853350;29;20029;-93
2022/12/23 06:34:20;;;;;;;39.38;17.88;;;;;;;10.67;89.40;100451.19;4857725;29;20033;-94
2022/12/23 06:36:45;;;;;;;40.22;17.58;;;;;;;10.61;89.44;100435.63;4852633;29;20097;-93
2022/12/23 06:39:11;;;;;;;33.05;16.85;;;;;;;10.69;89.29;100459.94;4852195;29;20113;-93
2022/12/23 06:41:36;;;;;;;34.70;16.88;;;;;;;10.76;89.41;100481.66;4845703;29;20021;-93
2022/12/23 06:44:01;;;;;;;43.35;18.00;;;;;;;10.63;89.74;100461.09;4855840;29;20037;-93
2022/12/23 06:46:27;;;;;;;35.55;18.13;;;;;;;10.59;89.87;100451.59;4851464;29;20140;-94
2022/12/23 06:48:52;;;;;;;38.83;17.50;;;;;;;10.67;89.67;100477.63;4845948;29;20049;-92
2022/12/23 06:51:17;;;;;;;33.75;16.88;;;;;;;10.63;89.60;100484.88;4858256;29;20029;-92
2022/12/23 06:53:43;;;;;;;39.50;18.65;;;;;;;10.64;89.69;100483.94;4861592;29;20026;-93
2022/12/23 06:56:08;;;;;;;39.75;17.45;;;;;;;10.72;89.21;100507.38;4854602;29;20036;-93
2022/12/23 06:58:35;;;;;;;36.22;17.80;;;;;;;10.54;89.64;100481.78;4853349;29;20513;-94
2022/12/23 07:01:00;;;;;;;36.38;18.55;;;;;;;10.67;89.36;100512.88;4857720;29;20120;-94
2022/12/23 07:03:25;;;;;;;40.25;18.90;;;;;;;10.65;89.30;100516.53;4847229;29;20035;-94
2022/12/23 07:05:51;;;;;;;40.17;19.23;;;;;;;10.76;89.34;100538.03;4851318;29;20032;-94
2022/12/23 07:08:17;;;;;;;41.17;20.20;;;;;;;10.69;89.47;100539.25;4858321;29;20121;-94
2022/12/23 07:10:43;;;;;;;39.53;19.95;;;;;;;10.69;89.35;100552.47;4851921;29;20109;-94
2022/12/23 07:13:08;;;;;;;45.67;20.73;;;;;;;10.64;89.39;100547.41;4845475;29;20040;-94
2022/12/23 07:15:35;;;;;;;42.40;20.67;;;;;;;10.64;89.51;100550.03;4851647;29;20041;-94
2022/12/23 07:18:00;;;;;;;46.42;20.65;;;;;;;10.61;89.40;100525.53;4846478;29;20080;-95
2022/12/23 07:20:25;;;;;;;45.05;20.30;;;;;;;10.55;89.34;100513.44;4853944;29;20490;-95
2022/12/23 07:22:53;;;;;;;41.38;20.67;;;;;;;10.65;89.44;100520.03;4844273;29;20079;-94
2022/12/23 07:25:18;;;;;;;45.35;21.30;;;;;;;10.60;89.37;100510.59;4854768;29;20490;-93
2022/12/23 07:27:44;;;;;;;45.22;21.45;;;;;;;10.57;89.35;100516.84;4857199;29;20034;-94
2022/12/23 07:30:09;;;;;;;46.03;22.42;;;;;;;10.54;89.89;100521.41;4854855;29;20117;-93
2022/12/23 07:32:35;;;;;;;49.03;21.77;;;;;;;10.48;90.29;100514.63;4847944;29;20045;-95
2022/12/23 07:35:00;;;;;;;52.00;24.85;;;;;;;10.49;90.00;100521.63;4845756;29;20801;-94
2022/12/23 07:37:25;;;;;;;50.38;22.15;;;;;;;10.58;90.13;100520.34;4849042;29;20041;-94
2022/12/23 07:39:50;;;;;;;51.55;22.27;;;;;;;10.51;89.72;100498.66;4855522;29;20025;-94
2022/12/23 07:42:16;;;;;;;56.72;24.45;;;;;;;10.49;90.30;100500.47;4856397;29;20033;-94
2022/12/23 07:44:41;;;;;;;53.63;23.60;;;;;;;10.45;90.16;100502.44;4844468;29;20260;-95
2022/12/23 07:47:06;;;;;;;53.78;22.38;;;;;;;10.46;90.52;100500.63;4851623;29;20487;-93
2022/12/23 07:49:31;;;;;;;53.33;24.63;;;;;;;10.42;90.51;100502.56;4846352;29;20120;-95
2022/12/23 07:51:57;;;;;;;49.30;21.98;;;;;;;10.46;90.24;100505.94;4851993;29;20486;-94
2022/12/23 07:54:22;;;;;;;51.45;23.67;;;;;;;10.49;90.21;100516.34;4851749;29;20068;-94
2022/12/23 07:56:47;;;;;;;51.85;22.42;;;;;;;10.54;89.94;100519.66;4852843;29;20022;-94
2022/12/23 07:59:13;;;;;;;52.25;23.80;;;;;;;10.47;90.22;100508.50;4845643;29;20095;-94
2022/12/23 08:01:38;;;;;;;51.05;22.10;;;;;;;10.47;90.65;100505.84;4844329;29;20137;-92
2022/12/23 08:04:03;;;;;;;60.25;23.35;;;;;;;10.54;90.28;100521.41;4852538;29;20481;-94
2022/12/23 08:06:29;;;;;;;55.78;22.73;;;;;;;10.44;90.20;100505.13;4850078;29;20037;-94
2022/12/23 08:08:54;;;;;;;61.53;25.40;;;;;;;10.46;90.17;100504.13;4851121;29;20036;-93
2022/12/23 08:11:19;;;;;;;52.38;22.83;;;;;;;10.46;90.22;100495.34;4856496;29;20124;-94
2022/12/23 08:13:47;;;;;;;54.85;22.75;;;;;;;10.48;90.15;100496.97;4848464;29;20439;-95
2022/12/23 08:16:12;;;;;;;55.38;21.85;;;;;;;10.50;90.28;100502.22;4850617;29;20068;-94
2022/12/23 08:18:40;;;;;;;49.72;22.42;;;;;;;10.55;89.93;100505.50;4857496;29;20550;-94
2022/12/23 08:21:09;;;;;;;45.00;20.42;;;;;;;10.55;89.78;100489.66;4846505;29;20034;-93
2022/12/23 08:23:34;;;;;;;48.85;20.50;;;;;;;10.51;89.76;100479.28;4852785;29;20098;-94
2022/12/23 08:26:07;;;;;;;48.80;20.52;;;;;;;10.57;89.50;100501.00;4856821;29;20068;-94
2022/12/23 08:28:34;;;;;;;48.00;20.52;;;;;;;10.51;90.03;100487.22;4851266;29;20414;-92
2022/12/23 08:31:07;;;;;;;41.45;18.38;;;;;;;10.55;89.63;100507.31;4846848;29;20038;-94
2022/12/23 08:33:32;;;;;;;45.20;20.85;;;;;;;10.52;89.64;100481.00;4855853;29;20044;-93
2022/12/23 08:35:58;;;;;;;49.75;20.42;;;;;;;10.49;89.62;100484.63;4855832;29;20108;-93
2022/12/23 08:38:23;;;;;;;48.25;19.30;;;;;;;10.61;89.10;100492.00;4849556;29;20121;-94
2022/12/23 08:40:48;;;;;;;40.75;16.10;;;;;;;10.49;89.26;100495.19;4854832;29;20033;-93
2022/12/23 08:43:14;;;;;;;37.22;16.30;;;;;;;10.51;89.15;100496.00;4853171;29;20041;-93
2022/12/23 08:45:39;;;;;;;41.13;17.58;;;;;;;10.52;89.15;100483.63;4847907;29;20553;-94
2022/12/23 08:48:05;;;;;;;40.10;17.05;;;;;;;10.48;89.34;100478.47;4846181;29;20045;-94
2022/12/23 08:50:36;;;;;;;37.80;16.88;;;;;;;10.47;89.32;100487.34;4849101;29;20022;-93
2022/12/23 08:53:02;;;;;;;35.38;15.15;;;;;;;10.51;89.33;100474.84;4844553;29;20993;-93
2022/12/23 08:55:27;;;;;;;39.30;16.33;;;;;;;10.56;89.15;100472.84;4846478;29;20029;-94
2022/12/23 08:57:52;;;;;;;47.28;16.63;;;;;;;10.54;89.00;100461.50;4856488;29;20033;-94
2022/12/23 09:00:18;;;;;;;35.10;15.23;;;;;;;10.55;88.95;100463.22;4850848;29;20430;-94
2022/12/23 09:02:43;;;;;;;44.85;18.00;;;;;;;10.54;88.80;100461.50;4854546;29;20061;-92
2022/12/23 09:05:08;;;;;;;39.50;16.52;;;;;;;10.50;88.95;100452.00;4855063;29;20033;-93
2022/12/23 09:07:34;;;;;;;32.03;15.25;;;;;;;10.56;89.07;100477.28;4857194;29;20041;-94
2022/12/23 09:09:59;;;;;;;36.58;15.25;;;;;;;10.47;89.53;100465.34;4858734;29;20481;-94
2022/12/23 09:12:24;;;;;;;38.97;16.35;;;;;;;10.44;89.33;100447.88;4843594;29;20398;-93
2022/12/23 09:14:49;;;;;;;36.70;16.25;;;;;;;10.43;89.90;100448.75;4857972;29;20040;-94
2022/12/23 09:17:16;;;;;;;35.95;14.98;;;;;;;10.45;89.63;100446.06;4849234;29;20528;-94
2022/12/23 09:19:41;;;;;;;33.63;14.30;;;;;;;10.44;89.74;100433.75;4854818;29;20382;-94
2022/12/23 09:22:07;;;;;;;33.28;14.55;;;;;;;10.48;89.58;100420.34;4845205;29;20036;-94
2022/12/23 09:24:32;;;;;;;31.80;13.07;;;;;;;10.53;89.34;100421.91;4851188;29;20090;-95
2022/12/23 09:26:57;;;;;;;31.45;13.73;;;;;;;10.44;89.40;100407.34;4854067;29;20042;-94
2022/12/23 09:29:22;;;;;;;34.28;14.07;;;;;;;10.50;89.33;100416.78;4851723;29;20064;-94
2022/12/23 09:31:48;;;;;;;30.98;14.02;;;;;;;10.50;89.11;100414.16;4853022;29;20108;-94
2022/12/23 09:34:13;;;;;;;26.33;11.98;;;;;;;10.59;89.16;100425.16;4853688;29;20484;-96
2022/12/23 09:36:38;;;;;;;32.22;13.30;;;;;;;10.50;89.35;100415.00;4849485;29;20036;-94
2022/12/23 09:39:04;;;;;;;32.13;13.57;;;;;;;10.47;89.18;100412.50;4844033;29;20046;-95
2022/12/23 09:41:53;;;;;;;27.73;12.45;;;;;;;10.52;89.12;100410.50;4857937;29;20030;-95
2022/12/23 09:44:43;;;;;;;27.45;11.18;;;;;;;10.54;89.20;100413.03;4852364;29;20065;-94
2022/12/23 09:47:14;;;;;;;29.80;11.88;;;;;;;10.48;88.97;100400.97;4850881;29;20558;-93
2022/12/23 09:49:45;;;;;;;28.00;12.15;;;;;;;10.49;88.92;100397.41;4873915;29;20052;-95
2022/12/23 09:52:15;;;;;;;27.92;12.38;;;;;;;10.53;89.14;100396.34;4841368;29;20037;-93
2022/12/23 09:54:44;;;;;;;27.02;11.07;;;;;;;10.51;88.91;100387.63;4842212;29;20513;-94
2022/12/23 09:57:38;;;;;;;26.83;10.88;;;;;;;10.52;89.26;100377.91;4860964;29;20577;-94
2022/12/23 10:00:13;;;;;;;21.33;10.32;;;;;;;10.63;89.36;100391.47;4855159;29;20025;-94
2022/12/23 10:03:16;;;;;;;27.48;10.85;;;;;;;10.65;88.89;100395.78;4853159;29;20033;-96
2022/12/23 10:05:44;;;;;;;;;;;;;;;10.69;88.42;100399.97;4865175;29;20026;-96
2022/12/23 10:08:21;;;;;;;27.60;10.18;;;;;;;10.55;88.79;100405.06;4870533;29;20022;-95
2022/12/23 10:10:54;;;;;;;23.35;10.52;;;;;;;10.64;89.09;100415.22;4860278;29;20034;-95
2022/12/23 10:13:25;;;;;;;20.40;10.35;;;;;;;10.60;89.02;100400.41;4859136;29;20398;-96
2022/12/23 10:15:53;;;;;;;25.58;10.90;;;;;;;10.46;89.03;100369.34;4858309;29;20482;-94
2022/12/23 10:18:43;;;;;;;26.83;10.80;;;;;;;10.57;89.01;100373.28;4852052;29;20097;-94
2022/12/23 10:21:32;;;;;;;23.35;12.48;;;;;;;10.51;89.03;100355.91;4851598;29;20077;-95
2022/12/23 10:24:04;;;;;;;17.83;9.75;;;;;;;10.58;89.16;100367.91;4860582;29;20085;-95
2022/12/23 10:26:47;;;;;;;22.67;11.00;;;;;;;10.65;88.66;100365.84;4854260;29;20026;-95
2022/12/23 10:29:17;;;;;;;20.73;10.35;;;;;;;10.57;88.86;100349.47;4845429;29;20865;-95
2022/12/23 10:31:58;;;;;;;25.73;11.70;;;;;;;10.58;88.86;100343.25;4859345;29;20033;-93
2022/12/23 10:35:10;;;;;;;23.75;10.55;;;;;;;10.69;88.53;100336.53;4859868;29;20021;-93
2022/12/23 10:37:50;;;;;;;19.75;10.10;;;;;;;10.67;88.53;100335.72;4857165;29;20554;-93
2022/12/23 10:40:19;;;;;;;19.77;10.55;;;;;;;10.72;88.18;100328.47;4855927;29;20030;-94
2022/12/23 10:43:02;;;;;;;22.42;10.02;;;;;;;10.73;88.03;100330.16;4857512;29;20033;-92
2022/12/23 10:45:45;;;;;;;23.70;10.38;;;;;;;10.71;87.90;100320.59;4851999;29;20419;-94
2022/12/23 10:48:29;;;;;;;;;;;;;;;10.90;87.89;100323.19;4856374;29;20034;-94
2022/12/23 10:51:08;;;;;;;19.13;9.13;;;;;;;10.82;88.04;100313.00;4849766;29;19926;-94
2022/12/23 10:53:40;;;;;;;20.98;8.73;;;;;;;10.83;87.91;100314.69;4858896;29;20035;-94
2022/12/23 10:56:06;;;;;;;18.30;8.50;;;;;;;10.86;87.49;100300.44;4851757;29;20483;-93
2022/12/23 10:58:35;;;;;;;17.30;9.18;;;;;;;10.83;87.53;100287.41;4853905;29;20033;-94
2022/12/23 11:01:05;;;;;;;21.70;8.30;;;;;;;10.81;88.09;100299.84;4860323;29;20029;-93
2022/12/23 11:03:41;;;;;;;17.02;8.00;;;;;;;10.77;88.54;100282.41;4843027;29;20064;-94
2022/12/23 11:06:10;;;;;;;18.50;7.80;;;;;;;10.80;88.08;100284.91;4840770;29;20042;-93
2022/12/23 11:08:37;;;;;;;18.92;7.55;;;;;;;10.79;87.48;100278.75;4850675;29;20040;-93
2022/12/23 11:11:03;;;;;;;14.13;7.90;;;;;;;10.82;87.87;100265.41;4845171;29;20033;-94
2022/12/23 11:13:34;;;;;;;16.33;8.00;;;;;;;10.80;87.96;100261.97;4855360;29;20040;-93
2022/12/23 11:16:20;;;;;;;14.85;7.07;;;;;;;10.80;88.01;100254.03;4859403;29;20038;-93
2022/12/23 11:19:17;;;;;;;16.13;7.18;;;;;;;10.99;87.34;100264.53;4865407;29;20033;-95
2022/12/23 11:21:54;;;;;;;14.57;6.32;;;;;;;10.77;87.45;100251.56;4837656;29;20155;-95
2022/12/23 11:24:21;;;;;;;17.17;7.28;;;;;;;10.67;88.14;100247.63;4860863;29;20101;-95
2022/12/23 11:26:59;;;;;;;16.17;7.10;;;;;;;10.63;88.40;100254.91;4858852;29;20032;-95
2022/12/23 11:29:37;;;;;;;18.48;6.88;;;;;;;10.61;88.18;100254.09;4853364;29;20061;-94
2022/12/23 11:32:14;;;;;;;15.02;7.60;;;;;;;10.56;88.28;100245.53;4859275;29;20450;-94
2022/12/23 11:34:45;;;;;;;14.75;6.47;;;;;;;10.54;88.57;100238.59;4869348;29;20036;-95
2022/12/23 11:37:24;;;;;;;14.15;6.43;;;;;;;10.56;88.53;100232.31;4864820;29;20092;-94
2022/12/23 11:39:49;;;;;;;14.90;7.47;;;;;;;10.42;88.98;100217.16;4850697;29;20475;-94
2022/12/23 11:42:19;;;;;;;16.10;6.82;;;;;;;10.47;89.05;100227.50;4864218;29;20044;-94
2022/12/23 11:44:48;;;;;;;14.93;6.70;;;;;;;10.53;88.47;100211.31;4868227;29;20041;-94
2022/12/23 11:47:22;;;;;;;18.35;6.63;;;;;;;10.59;89.27;100215.47;4865076;29;20052;-95
2022/12/23 11:49:49;;;;;;;10.05;6.15;;;;;;;10.54;89.13;100212.16;4871906;29;20037;-94
2022/12/23 11:52:19;;;;;;;19.48;6.97;;;;;;;10.47;89.43;100198.44;4872227;29;20053;-95